sensor_id;sensor_type;location;lat;lon;timestamp;pressure;altitude;pressure_sealevel;temperature;humidity
64739;BME280;51175;51.186;0.276;2022-08-25T00:00:14;101262.84;;;25.75;56.80
64739;BME280;51175;51.186;0.276;2022-08-25T00:00:47;101259.34;;;25.75;56.83
64739;BME280;51175;51.186;0.276;2022-08-25T00:01:24;101264.75;;;25.75;56.87
64739;BME280;51175;51.186;0.276;2022-08-25T00:01:58;101265.53;;;25.75;56.73
64739;BME280;51175;51.186;0.276;2022-08-25T00:02:29;101261.25;;;25.74;56.79
64739;BME280;51175;51.186;0.276;2022-08-25T00:02:59;101261.25;;;25.74;56.76
64739;BME280;51175;51.186;0.276;2022-08-25T00:03:29;101257.78;;;25.74;56.86
64739;BME280;51175;51.186;0.276;2022-08-25T00:04:02;101262.38;;;25.73;56.80
64739;BME280;51175;51.186;0.276;2022-08-25T00:04:34;101262.38;;;25.73;56.76
64739;BME280;51175;51.186;0.276;2022-08-25T00:05:04;101267.00;;;25.73;56.88
64739;BME280;51175;51.186;0.276;2022-08-25T00:05:35;101264.28;;;25.73;56.58
64739;BME280;51175;51.186;0.276;2022-08-25T00:06:06;101263.53;;;25.72;56.68
64739;BME280;51175;51.186;0.276;2022-08-25T00:06:37;101260.03;;;25.72;56.75
64739;BME280;51175;51.186;0.276;2022-08-25T00:07:08;101264.28;;;25.73;56.69
64739;BME280;51175;51.186;0.276;2022-08-25T00:07:39;101256.97;;;25.73;56.83
64739;BME280;51175;51.186;0.276;2022-08-25T00:08:09;101264.63;;;25.71;56.82
64739;BME280;51175;51.186;0.276;2022-08-25T00:08:40;101260.81;;;25.72;56.79
64739;BME280;51175;51.186;0.276;2022-08-25T00:09:13;101265.44;;;25.72;56.72
64739;BME280;51175;51.186;0.276;2022-08-25T00:09:43;101263.53;;;25.72;56.67
64739;BME280;51175;51.186;0.276;2022-08-25T00:10:14;101260.03;;;25.72;56.74
64739;BME280;51175;51.186;0.276;2022-08-25T00:10:45;101263.53;;;25.72;56.89
64739;BME280;51175;51.186;0.276;2022-08-25T00:11:19;101261.16;;;25.71;56.70
64739;BME280;51175;51.186;0.276;2022-08-25T00:11:50;101263.06;;;25.70;56.77
64739;BME280;51175;51.186;0.276;2022-08-25T00:12:21;101259.22;;;25.71;56.80
64739;BME280;51175;51.186;0.276;2022-08-25T00:12:52;101256.88;;;25.70;56.82
64739;BME280;51175;51.186;0.276;2022-08-25T00:13:22;101252.25;;;25.70;56.88
64739;BME280;51175;51.186;0.276;2022-08-25T00:13:56;101257.66;;;25.70;56.80
64739;BME280;51175;51.186;0.276;2022-08-25T00:14:31;101254.97;;;25.70;56.78
64739;BME280;51175;51.186;0.276;2022-08-25T00:15:03;101243.34;;;25.70;56.78
64739;BME280;51175;51.186;0.276;2022-08-25T00:15:34;101258.81;;;25.69;56.80
64739;BME280;51175;51.186;0.276;2022-08-25T00:16:04;101254.16;;;25.70;56.72
64739;BME280;51175;51.186;0.276;2022-08-25T00:16:35;101247.19;;;25.69;56.94
64739;BME280;51175;51.186;0.276;2022-08-25T00:17:06;101253.41;;;25.69;56.89
64739;BME280;51175;51.186;0.276;2022-08-25T00:17:36;101248.00;;;25.69;56.90
64739;BME280;51175;51.186;0.276;2022-08-25T00:18:07;101251.03;;;25.68;56.90
64739;BME280;51175;51.186;0.276;2022-08-25T00:18:38;101249.91;;;25.69;56.90
64739;BME280;51175;51.186;0.276;2022-08-25T00:19:14;101248.34;;;25.68;56.98
64739;BME280;51175;51.186;0.276;2022-08-25T00:19:45;101251.03;;;25.68;56.67
64739;BME280;51175;51.186;0.276;2022-08-25T00:20:15;101245.63;;;25.68;56.73
64739;BME280;51175;51.186;0.276;2022-08-25T00:20:46;101242.94;;;25.68;56.94
64739;BME280;51175;51.186;0.276;2022-08-25T00:21:17;101248.34;;;25.68;56.77
64739;BME280;51175;51.186;0.276;2022-08-25T00:21:48;101244.84;;;25.67;56.79
64739;BME280;51175;51.186;0.276;2022-08-25T00:22:19;101245.63;;;25.68;56.81
64739;BME280;51175;51.186;0.276;2022-08-25T00:22:49;101244.84;;;25.67;56.89
64739;BME280;51175;51.186;0.276;2022-08-25T00:23:19;101248.66;;;25.66;56.54
64739;BME280;51175;51.186;0.276;2022-08-25T00:23:50;101247.88;;;25.65;56.77
64739;BME280;51175;51.186;0.276;2022-08-25T00:24:21;101243.25;;;25.66;56.70
64739;BME280;51175;51.186;0.276;2022-08-25T00:24:51;101239.78;;;25.65;56.76
64739;BME280;51175;51.186;0.276;2022-08-25T00:25:22;101244.38;;;25.65;56.93
64739;BME280;51175;51.186;0.276;2022-08-25T00:25:52;101247.88;;;25.65;56.93
64739;BME280;51175;51.186;0.276;2022-08-25T00:26:24;101247.09;;;25.65;56.70
64739;BME280;51175;51.186;0.276;2022-08-25T00:26:57;101241.69;;;25.65;56.67
64739;BME280;51175;51.186;0.276;2022-08-25T00:27:28;101246.28;;;25.64;56.81
64739;BME280;51175;51.186;0.276;2022-08-25T00:27:58;101249.78;;;25.65;56.77
64739;BME280;51175;51.186;0.276;2022-08-25T00:28:29;101241.69;;;25.65;56.85
64739;BME280;51175;51.186;0.276;2022-08-25T00:29:00;101246.28;;;25.64;56.84
64739;BME280;51175;51.186;0.276;2022-08-25T00:29:31;101243.94;;;25.63;56.93
64739;BME280;51175;51.186;0.276;2022-08-25T00:30:03;101244.72;;;25.63;56.85
64739;BME280;51175;51.186;0.276;2022-08-25T00:30:35;101245.53;;;25.64;56.95
64739;BME280;51175;51.186;0.276;2022-08-25T00:31:10;101238.53;;;25.63;56.60
64739;BME280;51175;51.186;0.276;2022-08-25T00:31:41;101235.81;;;25.63;56.74
64739;BME280;51175;51.186;0.276;2022-08-25T00:32:12;101237.75;;;25.62;56.82
64739;BME280;51175;51.186;0.276;2022-08-25T00:32:44;101243.16;;;25.62;56.79
64739;BME280;51175;51.186;0.276;2022-08-25T00:33:16;101240.47;;;25.62;56.87
64739;BME280;51175;51.186;0.276;2022-08-25T00:33:48;101236.97;;;25.62;56.76
64739;BME280;51175;51.186;0.276;2022-08-25T00:34:24;101234.25;;;25.62;56.82
64739;BME280;51175;51.186;0.276;2022-08-25T00:34:55;101235.81;;;25.63;56.93
64739;BME280;51175;51.186;0.276;2022-08-25T00:35:26;101237.75;;;25.62;56.94
64739;BME280;51175;51.186;0.276;2022-08-25T00:35:57;101229.97;;;25.61;56.98
64739;BME280;51175;51.186;0.276;2022-08-25T00:36:29;101229.16;;;25.60;56.76
64739;BME280;51175;51.186;0.276;2022-08-25T00:37:00;101232.66;;;25.61;56.82
64739;BME280;51175;51.186;0.276;2022-08-25T00:37:31;101231.88;;;25.60;56.92
64739;BME280;51175;51.186;0.276;2022-08-25T00:38:02;101229.16;;;25.60;56.80
64739;BME280;51175;51.186;0.276;2022-08-25T00:38:32;101231.06;;;25.60;56.69
64739;BME280;51175;51.186;0.276;2022-08-25T00:39:04;101233.00;;;25.59;56.84
64739;BME280;51175;51.186;0.276;2022-08-25T00:39:36;101235.38;;;25.61;56.73
64739;BME280;51175;51.186;0.276;2022-08-25T00:40:07;101235.72;;;25.59;56.73
64739;BME280;51175;51.186;0.276;2022-08-25T00:40:39;101229.50;;;25.59;56.77
64739;BME280;51175;51.186;0.276;2022-08-25T00:41:12;101234.91;;;25.59;56.83
64739;BME280;51175;51.186;0.276;2022-08-25T00:41:43;101232.22;;;25.59;56.86
64739;BME280;51175;51.186;0.276;2022-08-25T00:42:14;101234.13;;;25.58;56.78
64739;BME280;51175;51.186;0.276;2022-08-25T00:42:44;101227.94;;;25.58;56.71
64739;BME280;51175;51.186;0.276;2022-08-25T00:43:16;101233.34;;;25.58;56.78
64739;BME280;51175;51.186;0.276;2022-08-25T00:43:51;101231.41;;;25.58;56.72
64739;BME280;51175;51.186;0.276;2022-08-25T00:44:23;101232.22;;;25.59;56.84
64739;BME280;51175;51.186;0.276;2022-08-25T00:44:55;101230.66;;;25.58;56.94
64739;BME280;51175;51.186;0.276;2022-08-25T00:45:25;101232.56;;;25.57;56.61
64739;BME280;51175;51.186;0.276;2022-08-25T00:45:56;101226.34;;;25.57;56.62
64739;BME280;51175;51.186;0.276;2022-08-25T00:46:33;101229.06;;;25.57;56.80
64739;BME280;51175;51.186;0.276;2022-08-25T00:47:05;101225.59;;;25.56;56.90
64739;BME280;51175;51.186;0.276;2022-08-25T00:47:35;101231.75;;;25.57;56.99
64739;BME280;51175;51.186;0.276;2022-08-25T00:48:06;101231.75;;;25.57;56.82
64739;BME280;51175;51.186;0.276;2022-08-25T00:48:37;101225.59;;;25.56;56.79
64739;BME280;51175;51.186;0.276;2022-08-25T00:49:45;101227.50;;;25.56;56.80
64739;BME280;51175;51.186;0.276;2022-08-25T00:50:17;101230.53;;;25.54;56.85
64739;BME280;51175;51.186;0.276;2022-08-25T00:50:48;101217.81;;;25.54;56.87
64739;BME280;51175;51.186;0.276;2022-08-25T00:51:34;101225.13;;;25.54;56.91
64739;BME280;51175;51.186;0.276;2022-08-25T00:52:21;101232.44;;;25.53;56.71
64739;BME280;51175;51.186;0.276;2022-08-25T00:52:54;101233.59;;;25.52;56.90
64739;BME280;51175;51.186;0.276;2022-08-25T00:53:24;101221.97;;;25.52;56.87
64739;BME280;51175;51.186;0.276;2022-08-25T00:53:55;101229.31;;;25.51;56.90
64739;BME280;51175;51.186;0.276;2022-08-25T00:55:20;101230.09;;;25.52;57.07
64739;BME280;51175;51.186;0.276;2022-08-25T00:55:52;101224.25;;;25.50;57.01
64739;BME280;51175;51.186;0.276;2022-08-25T00:56:24;101226.16;;;25.49;56.95
64739;BME280;51175;51.186;0.276;2022-08-25T00:56:55;101224.25;;;25.50;56.82
64739;BME280;51175;51.186;0.276;2022-08-25T00:57:47;101226.97;;;25.50;56.93
64739;BME280;51175;51.186;0.276;2022-08-25T00:58:24;101224.59;;;25.48;56.84
64739;BME280;51175;51.186;0.276;2022-08-25T00:58:57;101219.53;;;25.47;56.87
64739;BME280;51175;51.186;0.276;2022-08-25T00:59:29;101215.69;;;25.48;57.08
64739;BME280;51175;51.186;0.276;2022-08-25T01:00:00;101216.84;;;25.47;56.92
64739;BME280;51175;51.186;0.276;2022-08-25T01:00:37;101216.03;;;25.46;56.93
64739;BME280;51175;51.186;0.276;2022-08-25T01:01:07;101216.84;;;25.47;56.97
64739;BME280;51175;51.186;0.276;2022-08-25T01:01:38;101214.13;;;25.47;56.79
64739;BME280;51175;51.186;0.276;2022-08-25T01:02:10;101212.53;;;25.46;56.94
64739;BME280;51175;51.186;0.276;2022-08-25T01:02:41;101210.63;;;25.46;56.67
64739;BME280;51175;51.186;0.276;2022-08-25T01:03:12;101209.84;;;25.46;57.10
64739;BME280;51175;51.186;0.276;2022-08-25T01:03:42;101208.72;;;25.47;56.83
64739;BME280;51175;51.186;0.276;2022-08-25T01:04:13;101209.84;;;25.46;56.90
64739;BME280;51175;51.186;0.276;2022-08-25T01:04:44;101207.94;;;25.46;57.05
64739;BME280;51175;51.186;0.276;2022-08-25T01:05:16;101207.94;;;25.46;56.89
64739;BME280;51175;51.186;0.276;2022-08-25T01:05:49;101214.13;;;25.47;56.81
64739;BME280;51175;51.186;0.276;2022-08-25T01:06:20;101203.66;;;25.45;56.99
64739;BME280;51175;51.186;0.276;2022-08-25T01:06:51;101203.66;;;25.45;57.00
64739;BME280;51175;51.186;0.276;2022-08-25T01:07:21;101209.84;;;25.46;56.86
64739;BME280;51175;51.186;0.276;2022-08-25T01:07:54;101205.56;;;25.45;57.06
64739;BME280;51175;51.186;0.276;2022-08-25T01:08:27;101209.84;;;25.46;56.79
64739;BME280;51175;51.186;0.276;2022-08-25T01:08:58;101205.22;;;25.46;56.85
64739;BME280;51175;51.186;0.276;2022-08-25T01:09:30;101211.78;;;25.45;56.87
64739;BME280;51175;51.186;0.276;2022-08-25T01:10:03;101209.06;;;25.45;56.93
64739;BME280;51175;51.186;0.276;2022-08-25T01:10:35;101207.13;;;25.46;56.95
64739;BME280;51175;51.186;0.276;2022-08-25T01:11:08;101202.88;;;25.45;56.97
64739;BME280;51175;51.186;0.276;2022-08-25T01:11:44;101202.88;;;25.45;56.98
64739;BME280;51175;51.186;0.276;2022-08-25T01:12:15;101196.66;;;25.44;56.78
64739;BME280;51175;51.186;0.276;2022-08-25T01:12:45;101202.06;;;25.44;56.98
64739;BME280;51175;51.186;0.276;2022-08-25T01:13:21;101195.56;;;25.45;56.86
64739;BME280;51175;51.186;0.276;2022-08-25T01:13:54;101191.25;;;25.44;56.96
64739;BME280;51175;51.186;0.276;2022-08-25T01:14:26;101192.41;;;25.43;56.93
64739;BME280;51175;51.186;0.276;2022-08-25T01:15:00;101198.59;;;25.44;56.78
64739;BME280;51175;51.186;0.276;2022-08-25T01:15:32;101195.09;;;25.43;56.81
64739;BME280;51175;51.186;0.276;2022-08-25T01:16:03;101196.66;;;25.44;56.88
64739;BME280;51175;51.186;0.276;2022-08-25T01:16:36;101197.81;;;25.43;56.83
64739;BME280;51175;51.186;0.276;2022-08-25T01:17:07;101199.72;;;25.42;56.90
64739;BME280;51175;51.186;0.276;2022-08-25T01:17:50;101203.22;;;25.43;56.81
64739;BME280;51175;51.186;0.276;2022-08-25T01:18:22;101205.13;;;25.42;56.74
64739;BME280;51175;51.186;0.276;2022-08-25T01:18:57;101205.13;;;25.42;56.82
64739;BME280;51175;51.186;0.276;2022-08-25T01:19:30;101212.47;;;25.42;56.92
64739;BME280;51175;51.186;0.276;2022-08-25T01:20:02;101207.06;;;25.42;56.94
64739;BME280;51175;51.186;0.276;2022-08-25T01:20:33;101206.25;;;25.41;56.92
64739;BME280;51175;51.186;0.276;2022-08-25T01:21:04;101210.88;;;25.41;56.67
64739;BME280;51175;51.186;0.276;2022-08-25T01:21:44;101206.25;;;25.41;57.06
64739;BME280;51175;51.186;0.276;2022-08-25T01:22:15;101213.56;;;25.41;56.71
64739;BME280;51175;51.186;0.276;2022-08-25T01:22:46;101209.31;;;25.40;56.87
64739;BME280;51175;51.186;0.276;2022-08-25T01:23:17;101207.41;;;25.40;56.93
64739;BME280;51175;51.186;0.276;2022-08-25T01:23:49;101207.41;;;25.40;56.83
64739;BME280;51175;51.186;0.276;2022-08-25T01:24:37;101214.38;;;25.41;56.90
64739;BME280;51175;51.186;0.276;2022-08-25T01:26:17;101215.88;;;25.39;56.84
64739;BME280;51175;51.186;0.276;2022-08-25T01:26:48;101214.28;;;25.38;56.87
64739;BME280;51175;51.186;0.276;2022-08-25T01:27:19;101222.38;;;25.38;56.87
64739;BME280;51175;51.186;0.276;2022-08-25T01:27:49;101222.38;;;25.38;56.90
64739;BME280;51175;51.186;0.276;2022-08-25T01:28:20;101216.19;;;25.37;56.93
64739;BME280;51175;51.186;0.276;2022-08-25T01:28:50;101221.59;;;25.37;56.75
64739;BME280;51175;51.186;0.276;2022-08-25T01:29:39;101215.41;;;25.37;57.01
64739;BME280;51175;51.186;0.276;2022-08-25T01:30:10;101213.50;;;25.37;57.01
64739;BME280;51175;51.186;0.276;2022-08-25T01:30:41;101218.91;;;25.37;56.96
64739;BME280;51175;51.186;0.276;2022-08-25T01:31:11;101218.44;;;25.35;56.85
64739;BME280;51175;51.186;0.276;2022-08-25T01:31:41;101213.03;;;25.35;57.03
64739;BME280;51175;51.186;0.276;2022-08-25T01:32:12;101213.84;;;25.36;56.82
64739;BME280;51175;51.186;0.276;2022-08-25T01:32:43;101209.22;;;25.36;57.23
64739;BME280;51175;51.186;0.276;2022-08-25T01:33:14;101219.25;;;25.36;56.95
64739;BME280;51175;51.186;0.276;2022-08-25T01:33:46;101208.44;;;25.36;56.92
64739;BME280;51175;51.186;0.276;2022-08-25T01:34:18;101211.13;;;25.36;56.88
64739;BME280;51175;51.186;0.276;2022-08-25T01:34:48;101204.94;;;25.35;56.92
64739;BME280;51175;51.186;0.276;2022-08-25T01:35:19;101213.03;;;25.35;56.96
64739;BME280;51175;51.186;0.276;2022-08-25T01:35:49;101212.25;;;25.35;56.96
64739;BME280;51175;51.186;0.276;2022-08-25T01:36:20;101207.63;;;25.35;56.99
64739;BME280;51175;51.186;0.276;2022-08-25T01:36:52;101204.13;;;25.35;56.99
64739;BME280;51175;51.186;0.276;2022-08-25T01:37:22;101210.34;;;25.35;57.03
64739;BME280;51175;51.186;0.276;2022-08-25T01:37:53;101206.84;;;25.35;56.98
64739;BME280;51175;51.186;0.276;2022-08-25T01:38:24;101209.53;;;25.35;57.04
64739;BME280;51175;51.186;0.276;2022-08-25T01:38:54;101207.63;;;25.35;57.11
64739;BME280;51175;51.186;0.276;2022-08-25T01:39:27;101204.94;;;25.35;56.96
64739;BME280;51175;51.186;0.276;2022-08-25T01:39:57;101202.22;;;25.35;56.70
64739;BME280;51175;51.186;0.276;2022-08-25T01:40:28;101204.94;;;25.35;56.99
64739;BME280;51175;51.186;0.276;2022-08-25T01:40:58;101200.69;;;25.34;57.00
64739;BME280;51175;51.186;0.276;2022-08-25T01:41:34;101203.03;;;25.36;56.99
64739;BME280;51175;51.186;0.276;2022-08-25T01:43:11;101197.63;;;25.36;56.79
64739;BME280;51175;51.186;0.276;2022-08-25T01:43:48;101195.28;;;25.34;56.86
64739;BME280;51175;51.186;0.276;2022-08-25T01:44:18;101195.28;;;25.34;56.98
64739;BME280;51175;51.186;0.276;2022-08-25T01:44:49;101189.06;;;25.34;56.93
64739;BME280;51175;51.186;0.276;2022-08-25T01:45:20;101193.69;;;25.33;56.92
64739;BME280;51175;51.186;0.276;2022-08-25T01:45:50;101190.19;;;25.33;56.93
64739;BME280;51175;51.186;0.276;2022-08-25T01:46:21;101186.72;;;25.32;56.96
64739;BME280;51175;51.186;0.276;2022-08-25T01:46:52;101184.78;;;25.33;57.06
64739;BME280;51175;51.186;0.276;2022-08-25T01:47:23;101183.22;;;25.32;56.85
64739;BME280;51175;51.186;0.276;2022-08-25T01:47:54;101184.00;;;25.32;56.93
64739;BME280;51175;51.186;0.276;2022-08-25T01:48:24;101187.47;;;25.33;56.72
64739;BME280;51175;51.186;0.276;2022-08-25T01:48:55;101182.06;;;25.33;56.91
64739;BME280;51175;51.186;0.276;2022-08-25T01:49:26;101178.59;;;25.32;56.93
64739;BME280;51175;51.186;0.276;2022-08-25T01:49:56;101181.66;;;25.31;56.92
64739;BME280;51175;51.186;0.276;2022-08-25T01:50:27;101180.50;;;25.32;56.85
64739;BME280;51175;51.186;0.276;2022-08-25T01:50:57;101174.31;;;25.31;56.84
64739;BME280;51175;51.186;0.276;2022-08-25T01:51:33;101175.09;;;25.32;56.78
64739;BME280;51175;51.186;0.276;2022-08-25T01:52:14;101182.06;;;25.33;56.79
64739;BME280;51175;51.186;0.276;2022-08-25T01:52:54;101173.19;;;25.32;56.92
64739;BME280;51175;51.186;0.276;2022-08-25T01:53:28;101169.69;;;25.32;56.88
64739;BME280;51175;51.186;0.276;2022-08-25T01:54:01;101170.84;;;25.31;56.87
64739;BME280;51175;51.186;0.276;2022-08-25T01:54:31;101168.91;;;25.31;56.93
64739;BME280;51175;51.186;0.276;2022-08-25T01:55:03;101166.53;;;25.29;56.88
64739;BME280;51175;51.186;0.276;2022-08-25T01:55:34;101167.00;;;25.32;56.84
64739;BME280;51175;51.186;0.276;2022-08-25T01:56:20;101164.63;;;25.30;57.01
64739;BME280;51175;51.186;0.276;2022-08-25T01:56:51;101161.13;;;25.29;56.84
64739;BME280;51175;51.186;0.276;2022-08-25T01:57:21;101163.84;;;25.29;56.86
64739;BME280;51175;51.186;0.276;2022-08-25T01:57:51;101155.72;;;25.29;56.91
64739;BME280;51175;51.186;0.276;2022-08-25T01:58:26;101159.56;;;25.28;56.84
64739;BME280;51175;51.186;0.276;2022-08-25T01:58:57;101157.66;;;25.29;56.80
64739;BME280;51175;51.186;0.276;2022-08-25T01:59:27;101160.38;;;25.29;56.80
64739;BME280;51175;51.186;0.276;2022-08-25T01:59:58;101154.97;;;25.29;56.62
64739;BME280;51175;51.186;0.276;2022-08-25T02:00:28;101154.97;;;25.29;56.99
64739;BME280;51175;51.186;0.276;2022-08-25T02:01:02;101154.16;;;25.28;56.93
64739;BME280;51175;51.186;0.276;2022-08-25T02:01:33;101159.56;;;25.28;56.89
64739;BME280;51175;51.186;0.276;2022-08-25T02:02:04;101152.59;;;25.27;56.88
64739;BME280;51175;51.186;0.276;2022-08-25T02:02:34;101159.56;;;25.28;56.72
64739;BME280;51175;51.186;0.276;2022-08-25T02:03:05;101147.97;;;25.28;56.77
64739;BME280;51175;51.186;0.276;2022-08-25T02:03:37;101158.44;;;25.29;56.90
64739;BME280;51175;51.186;0.276;2022-08-25T02:04:08;101156.88;;;25.28;56.85
64739;BME280;51175;51.186;0.276;2022-08-25T02:04:38;101154.97;;;25.29;56.92
64739;BME280;51175;51.186;0.276;2022-08-25T02:05:11;101162.28;;;25.28;56.75
64739;BME280;51175;51.186;0.276;2022-08-25T02:05:43;101156.88;;;25.28;56.85
64739;BME280;51175;51.186;0.276;2022-08-25T02:06:16;101156.88;;;25.28;56.81
64739;BME280;51175;51.186;0.276;2022-08-25T02:06:47;101159.56;;;25.28;56.85
64739;BME280;51175;51.186;0.276;2022-08-25T02:07:19;101154.97;;;25.29;56.95
64739;BME280;51175;51.186;0.276;2022-08-25T02:07:49;101156.06;;;25.28;56.78
64739;BME280;51175;51.186;0.276;2022-08-25T02:08:20;101156.88;;;25.28;56.76
64739;BME280;51175;51.186;0.276;2022-08-25T02:08:54;101164.97;;;25.28;56.93
64739;BME280;51175;51.186;0.276;2022-08-25T02:09:25;101154.16;;;25.28;56.86
64739;BME280;51175;51.186;0.276;2022-08-25T02:09:55;101159.13;;;25.26;56.79
64739;BME280;51175;51.186;0.276;2022-08-25T02:10:26;101161.47;;;25.28;56.79
64739;BME280;51175;51.186;0.276;2022-08-25T02:10:56;101156.06;;;25.28;56.85
64739;BME280;51175;51.186;0.276;2022-08-25T02:11:27;101164.19;;;25.28;56.77
64739;BME280;51175;51.186;0.276;2022-08-25T02:11:58;101159.56;;;25.28;56.79
64739;BME280;51175;51.186;0.276;2022-08-25T02:12:29;101153.38;;;25.28;56.96
64739;BME280;51175;51.186;0.276;2022-08-25T02:13:01;101153.38;;;25.28;56.97
64739;BME280;51175;51.186;0.276;2022-08-25T02:13:31;101153.38;;;25.28;56.72
64739;BME280;51175;51.186;0.276;2022-08-25T02:14:02;101153.38;;;25.28;57.01
64739;BME280;51175;51.186;0.276;2022-08-25T02:14:32;101152.59;;;25.27;56.83
64739;BME280;51175;51.186;0.276;2022-08-25T02:15:06;101152.59;;;25.27;56.81
64739;BME280;51175;51.186;0.276;2022-08-25T02:15:45;101146.84;;;25.29;56.89
64739;BME280;51175;51.186;0.276;2022-08-25T02:16:20;101141.78;;;25.27;56.88
64739;BME280;51175;51.186;0.276;2022-08-25T02:16:52;101141.00;;;25.27;56.77
64739;BME280;51175;51.186;0.276;2022-08-25T02:17:23;101138.28;;;25.27;56.83
64739;BME280;51175;51.186;0.276;2022-08-25T02:17:53;101140.19;;;25.26;56.86
64739;BME280;51175;51.186;0.276;2022-08-25T02:18:24;101134.78;;;25.26;56.92
64739;BME280;51175;51.186;0.276;2022-08-25T02:18:55;101131.31;;;25.26;56.99
64739;BME280;51175;51.186;0.276;2022-08-25T02:19:26;101134.03;;;25.26;56.83
64739;BME280;51175;51.186;0.276;2022-08-25T02:19:56;101137.50;;;25.26;56.86
64739;BME280;51175;51.186;0.276;2022-08-25T02:20:27;101127.81;;;25.25;57.10
64739;BME280;51175;51.186;0.276;2022-08-25T02:20:57;101130.53;;;25.25;56.95
64739;BME280;51175;51.186;0.276;2022-08-25T02:21:28;101130.53;;;25.25;57.01
64739;BME280;51175;51.186;0.276;2022-08-25T02:21:59;101127.81;;;25.25;56.78
64739;BME280;51175;51.186;0.276;2022-08-25T02:22:30;101125.91;;;25.26;56.87
64739;BME280;51175;51.186;0.276;2022-08-25T02:23:00;101125.13;;;25.25;56.78
64739;BME280;51175;51.186;0.276;2022-08-25T02:23:30;101121.63;;;25.25;56.79
64739;BME280;51175;51.186;0.276;2022-08-25T02:24:01;101129.72;;;25.25;56.82
64739;BME280;51175;51.186;0.276;2022-08-25T02:24:32;101134.38;;;25.24;56.71
64739;BME280;51175;51.186;0.276;2022-08-25T02:25:03;101133.22;;;25.25;56.66
64739;BME280;51175;51.186;0.276;2022-08-25T02:25:37;101131.66;;;25.24;56.79
64739;BME280;51175;51.186;0.276;2022-08-25T02:26:09;101137.84;;;25.25;56.86
64739;BME280;51175;51.186;0.276;2022-08-25T02:26:40;101140.53;;;25.25;56.64
64739;BME280;51175;51.186;0.276;2022-08-25T02:27:10;101135.94;;;25.25;56.78
64739;BME280;51175;51.186;0.276;2022-08-25T02:27:41;101139.78;;;25.24;56.92
64739;BME280;51175;51.186;0.276;2022-08-25T02:28:11;101137.84;;;25.25;56.63
64739;BME280;51175;51.186;0.276;2022-08-25T02:28:42;101142.47;;;25.24;56.89
64739;BME280;51175;51.186;0.276;2022-08-25T02:29:13;101137.06;;;25.24;56.90
64739;BME280;51175;51.186;0.276;2022-08-25T02:29:45;101140.53;;;25.25;56.76
64739;BME280;51175;51.186;0.276;2022-08-25T02:30:16;101134.38;;;25.24;56.79
64739;BME280;51175;51.186;0.276;2022-08-25T02:30:47;101132.44;;;25.25;56.92
64739;BME280;51175;51.186;0.276;2022-08-25T02:31:20;101128.97;;;25.24;56.78
64739;BME280;51175;51.186;0.276;2022-08-25T02:31:50;101124.66;;;25.23;56.94
64739;BME280;51175;51.186;0.276;2022-08-25T02:32:21;101120.06;;;25.24;57.06
64739;BME280;51175;51.186;0.276;2022-08-25T02:32:52;101117.34;;;25.24;57.02
64739;BME280;51175;51.186;0.276;2022-08-25T02:33:22;101119.25;;;25.23;57.14
64739;BME280;51175;51.186;0.276;2022-08-25T02:33:53;101120.06;;;25.24;56.88
64739;BME280;51175;51.186;0.276;2022-08-25T02:34:24;101115.81;;;25.23;57.00
64739;BME280;51175;51.186;0.276;2022-08-25T02:34:54;101116.56;;;25.23;56.84
64739;BME280;51175;51.186;0.276;2022-08-25T02:35:24;101117.34;;;25.24;57.03
64739;BME280;51175;51.186;0.276;2022-08-25T02:35:58;101113.09;;;25.23;57.02
64739;BME280;51175;51.186;0.276;2022-08-25T02:36:29;101113.09;;;25.23;57.15
64739;BME280;51175;51.186;0.276;2022-08-25T02:37:01;101117.72;;;25.22;57.04
64739;BME280;51175;51.186;0.276;2022-08-25T02:37:31;101112.31;;;25.22;57.14
64739;BME280;51175;51.186;0.276;2022-08-25T02:38:03;101116.56;;;25.23;57.08
64739;BME280;51175;51.186;0.276;2022-08-25T02:38:34;101107.69;;;25.23;56.85
64739;BME280;51175;51.186;0.276;2022-08-25T02:39:07;101112.31;;;25.22;57.01
64739;BME280;51175;51.186;0.276;2022-08-25T02:39:37;101113.09;;;25.23;57.23
64739;BME280;51175;51.186;0.276;2022-08-25T02:40:08;101111.50;;;25.22;57.11
64739;BME280;51175;51.186;0.276;2022-08-25T02:40:39;101118.84;;;25.21;57.13
64739;BME280;51175;51.186;0.276;2022-08-25T02:41:15;101117.72;;;25.22;57.03
64739;BME280;51175;51.186;0.276;2022-08-25T02:41:47;101114.22;;;25.22;57.16
64739;BME280;51175;51.186;0.276;2022-08-25T02:42:17;101118.84;;;25.21;56.99
64739;BME280;51175;51.186;0.276;2022-08-25T02:42:49;101109.94;;;25.21;57.07
64739;BME280;51175;51.186;0.276;2022-08-25T02:43:20;101113.44;;;25.21;56.90
64739;BME280;51175;51.186;0.276;2022-08-25T02:43:51;101118.84;;;25.21;57.28
64739;BME280;51175;51.186;0.276;2022-08-25T02:44:21;101112.66;;;25.21;57.09
64739;BME280;51175;51.186;0.276;2022-08-25T02:44:52;101119.97;;;25.20;57.07
64739;BME280;51175;51.186;0.276;2022-08-25T02:45:23;101115.34;;;25.21;57.16
64739;BME280;51175;51.186;0.276;2022-08-25T02:45:53;101119.97;;;25.20;57.24
64739;BME280;51175;51.186;0.276;2022-08-25T02:46:28;101116.50;;;25.20;57.19
64739;BME280;51175;51.186;0.276;2022-08-25T02:47:00;101113.78;;;25.20;57.22
64739;BME280;51175;51.186;0.276;2022-08-25T02:47:30;101109.16;;;25.20;57.13
64739;BME280;51175;51.186;0.276;2022-08-25T02:48:01;101111.84;;;25.20;57.22
64739;BME280;51175;51.186;0.276;2022-08-25T02:48:32;101111.09;;;25.20;57.25
64739;BME280;51175;51.186;0.276;2022-08-25T02:49:03;101113.78;;;25.20;57.34
64739;BME280;51175;51.186;0.276;2022-08-25T02:49:33;101113.00;;;25.19;57.20
64739;BME280;51175;51.186;0.276;2022-08-25T02:50:04;101113.00;;;25.19;57.18
64739;BME280;51175;51.186;0.276;2022-08-25T02:50:35;101111.09;;;25.20;57.25